createdAt,value
2018-07-22T00:00:36.978Z,6.47
2018-07-22T00:03:05.034Z,6.80
2018-07-22T00:05:33.129Z,6.13
2018-07-22T00:08:01.128Z,6.60
2018-07-22T00:10:30.236Z,7.10
2018-07-22T00:12:59.330Z,7.37
2018-07-22T00:15:27.369Z,7.67
2018-07-22T00:17:55.342Z,8.00
2018-07-22T00:20:23.611Z,7.50
2018-07-22T00:22:51.712Z,8.00
2018-07-22T00:25:19.676Z,7.90
2018-07-22T00:27:48.059Z,8.40
2018-07-22T00:30:16.048Z,7.73
2018-07-22T00:32:43.969Z,7.87
2018-07-22T00:35:12.718Z,8.07
2018-07-22T00:37:41.209Z,7.83
2018-07-22T00:40:10.575Z,8.40
2018-07-22T00:42:38.762Z,8.20
2018-07-22T00:45:08.723Z,8.30
2018-07-22T00:47:36.568Z,8.43
2018-07-22T00:50:05.364Z,8.30
2018-07-22T00:52:33.359Z,8.13
2018-07-22T00:55:01.188Z,8.80
2018-07-22T00:57:29.244Z,8.63
2018-07-22T00:59:57.215Z,8.90
2018-07-22T01:02:25.312Z,8.30
2018-07-22T01:04:53.505Z,8.70
2018-07-22T01:07:21.334Z,8.03
2018-07-22T01:09:49.204Z,8.30
2018-07-22T01:12:17.282Z,8.43
2018-07-22T01:14:45.151Z,8.83
2018-07-22T01:17:13.087Z,7.97
2018-07-22T01:19:41.357Z,8.27
2018-07-22T01:22:09.408Z,8.43
2018-07-22T01:24:37.460Z,7.50
2018-07-22T01:27:06.368Z,8.43
2018-07-22T01:29:34.398Z,8.07
2018-07-22T01:32:02.229Z,8.63
2018-07-22T01:34:30.266Z,7.67
2018-07-22T01:36:58.213Z,7.57
2018-07-22T01:39:26.092Z,8.67
2018-07-22T01:41:54.963Z,8.63
2018-07-22T01:44:22.819Z,8.40
2018-07-22T01:46:50.750Z,7.33
2018-07-22T01:49:18.775Z,8.17
2018-07-22T01:51:46.807Z,8.53
2018-07-22T01:54:14.898Z,8.10
2018-07-22T01:56:42.777Z,8.30
2018-07-22T01:59:10.774Z,8.63
2018-07-22T02:08:23.296Z,8.17
2018-07-22T02:10:51.226Z,8.33
2018-07-22T02:13:19.175Z,8.13
2018-07-22T02:15:47.237Z,9.00
2018-07-22T02:18:15.479Z,8.60
2018-07-22T02:20:44.647Z,8.70
2018-07-22T02:23:12.982Z,8.83
2018-07-22T02:25:40.833Z,8.43
2018-07-22T02:28:08.803Z,8.70
2018-07-22T02:30:37.231Z,8.37
2018-07-22T02:33:05.361Z,8.53
2018-07-22T02:35:33.305Z,8.70
2018-07-22T02:38:01.611Z,8.63
2018-07-22T02:40:29.482Z,8.70
2018-07-22T02:42:57.442Z,8.80
2018-07-22T02:45:25.609Z,8.70
2018-07-22T02:47:53.492Z,9.27
2018-07-22T02:50:21.441Z,8.60
2018-07-22T02:52:49.657Z,9.60
2018-07-22T02:55:17.769Z,9.57
2018-07-22T02:57:45.782Z,8.73
2018-07-22T03:00:14.791Z,9.60
2018-07-22T03:02:42.855Z,9.90
2018-07-22T03:05:10.782Z,9.10
2018-07-22T03:07:38.814Z,11.80
2018-07-22T03:10:06.690Z,9.30
2018-07-22T03:12:34.740Z,10.10
2018-07-22T03:15:03.039Z,10.23
2018-07-22T03:17:31.510Z,9.90
2018-07-22T03:19:59.426Z,9.67
2018-07-22T03:22:27.519Z,8.60
2018-07-22T03:24:56.073Z,9.67
2018-07-22T03:27:23.974Z,9.13
2018-07-22T03:29:51.883Z,8.60
2018-07-22T03:32:19.840Z,9.00
2018-07-22T03:34:47.897Z,9.23
2018-07-22T03:37:15.894Z,9.80
2018-07-22T03:39:43.996Z,8.73
2018-07-22T03:42:12.061Z,8.50
2018-07-22T03:44:40.232Z,9.60
2018-07-22T03:47:08.434Z,9.27
2018-07-22T03:49:36.387Z,9.20
2018-07-22T03:52:04.420Z,10.07
2018-07-22T03:54:32.451Z,9.73
2018-07-22T03:57:00.553Z,10.33
2018-07-22T03:59:28.571Z,10.37
2018-07-22T04:01:57.084Z,9.97
2018-07-22T04:04:25.012Z,9.70
2018-07-22T04:06:52.820Z,9.83
2018-07-22T04:09:21.120Z,9.20
2018-07-22T04:11:48.979Z,10.53
2018-07-22T04:14:16.956Z,10.95
2018-07-22T04:16:45.188Z,10.53
2018-07-22T04:19:12.995Z,10.55
2018-07-22T04:21:40.790Z,9.38
2018-07-22T04:25:11.575Z,8.83
2018-07-22T04:27:39.522Z,37.67
2018-07-22T04:30:07.404Z,11.65
2018-07-22T04:32:35.708Z,10.23
2018-07-22T04:35:03.758Z,10.03
2018-07-22T04:37:31.720Z,8.55
2018-07-22T04:39:59.876Z,8.28
2018-07-22T04:42:27.688Z,8.78
2018-07-22T04:51:40.189Z,9.23
2018-07-22T04:54:08.247Z,9.18
2018-07-22T04:56:36.268Z,8.83
2018-07-22T04:59:04.255Z,9.40
2018-07-22T05:01:32.244Z,7.55
2018-07-22T05:04:00.238Z,8.90
2018-07-22T05:06:28.505Z,8.40
2018-07-22T05:08:56.455Z,8.45
2018-07-22T05:11:24.438Z,8.08
2018-07-22T05:13:52.672Z,7.72
2018-07-22T05:16:20.637Z,8.35
2018-07-22T05:18:48.526Z,8.43
2018-07-22T05:21:16.743Z,7.30
2018-07-22T05:23:44.761Z,7.58
2018-07-22T05:26:12.601Z,7.20
2018-07-22T05:28:40.728Z,7.12
2018-07-22T05:31:08.790Z,7.78
2018-07-22T05:33:36.745Z,7.70
2018-07-22T05:36:04.770Z,6.90
2018-07-22T05:38:32.747Z,6.92
2018-07-22T05:41:00.735Z,6.53
2018-07-22T05:43:28.720Z,7.53
2018-07-22T05:45:56.938Z,8.00
2018-07-22T05:48:24.835Z,7.42
2018-07-22T05:50:52.666Z,6.87
2018-07-22T05:53:20.581Z,7.22
2018-07-22T05:55:49.499Z,7.40
2018-07-22T05:58:17.843Z,7.10
2018-07-22T06:00:45.779Z,6.70
2018-07-22T06:03:13.661Z,6.65
2018-07-22T06:05:41.527Z,8.13
2018-07-22T06:08:09.514Z,6.95
2018-07-22T06:10:37.517Z,6.78
2018-07-22T06:13:05.651Z,7.50
2018-07-22T06:15:33.549Z,7.75
2018-07-22T06:18:01.506Z,7.05
2018-07-22T06:20:29.515Z,6.97
2018-07-22T06:22:57.412Z,7.83
2018-07-22T06:25:25.379Z,7.22
2018-07-22T06:27:53.450Z,7.55
2018-07-22T06:30:21.349Z,7.20
2018-07-22T06:32:49.320Z,7.03
2018-07-22T06:35:17.548Z,7.15
2018-07-22T06:37:45.520Z,7.83
2018-07-22T06:40:13.548Z,7.53
2018-07-22T06:42:42.248Z,7.72
2018-07-22T06:45:10.395Z,7.87
2018-07-22T06:47:38.196Z,8.50
2018-07-22T06:50:06.237Z,7.95
2018-07-22T06:52:35.166Z,7.72
2018-07-22T06:55:03.196Z,8.10
2018-07-22T06:57:31.272Z,9.28
2018-07-22T06:59:59.290Z,8.08
2018-07-22T07:02:27.427Z,8.43
2018-07-22T07:04:55.401Z,7.28
2018-07-22T07:07:23.947Z,8.60
2018-07-22T07:09:51.958Z,8.85
2018-07-22T07:12:19.979Z,9.53
2018-07-22T07:14:47.954Z,8.83
2018-07-22T07:17:16.942Z,8.65
2018-07-22T07:19:44.815Z,8.68
2018-07-22T07:22:13.924Z,8.38
2018-07-22T07:24:41.799Z,8.43
2018-07-22T07:27:10.135Z,8.50
2018-07-22T07:29:38.640Z,8.65
2018-07-22T07:32:06.987Z,7.95
2018-07-22T07:34:34.935Z,8.05
2018-07-22T07:37:03.227Z,7.92
2018-07-22T07:40:34.106Z,8.15
2018-07-22T07:43:02.209Z,7.60
2018-07-22T07:45:30.149Z,7.50
2018-07-22T07:48:01.093Z,7.78
2018-07-22T07:50:29.201Z,7.72
2018-07-22T07:52:57.081Z,7.55
2018-07-22T07:55:25.109Z,7.15
2018-07-22T07:57:55.170Z,7.53
2018-07-22T08:00:23.161Z,7.90
2018-07-22T08:02:51.198Z,6.62
2018-07-22T08:05:19.562Z,11.35
2018-07-22T08:07:47.653Z,7.40
2018-07-22T08:10:15.590Z,6.67
2018-07-22T08:12:44.179Z,6.87
2018-07-22T08:15:12.358Z,7.10
2018-07-22T08:17:40.426Z,6.62
2018-07-22T08:20:09.231Z,8.20
2018-07-22T08:22:37.308Z,7.15
2018-07-22T08:25:06.108Z,7.03
2018-07-22T08:27:34.571Z,6.95
2018-07-22T08:30:02.834Z,7.33
2018-07-22T08:32:30.714Z,7.22
2018-07-22T08:34:58.925Z,7.17
2018-07-22T08:37:27.922Z,7.30
2018-07-22T08:39:55.971Z,6.53
2018-07-22T08:42:24.237Z,7.87
2018-07-22T08:44:52.334Z,7.72
2018-07-22T08:47:20.417Z,7.42
2018-07-22T08:49:49.668Z,7.25
2018-07-22T08:52:17.816Z,7.35
2018-07-22T08:54:45.800Z,7.75
2018-07-22T08:57:14.167Z,6.90
2018-07-22T08:59:42.127Z,12.35
2018-07-22T09:02:10.423Z,6.70
2018-07-22T09:04:38.614Z,8.45
2018-07-22T09:07:06.685Z,7.78
2018-07-22T09:09:34.665Z,8.40
2018-07-22T09:12:03.732Z,6.92
2018-07-22T09:14:31.854Z,8.43
2018-07-22T09:16:59.913Z,8.28
2018-07-22T09:19:27.980Z,7.87
2018-07-22T09:21:55.950Z,6.95
2018-07-22T09:24:23.914Z,7.42
2018-07-22T09:26:52.688Z,7.85
2018-07-22T09:29:20.663Z,6.80
2018-07-22T09:31:48.698Z,6.83
2018-07-22T09:34:17.434Z,6.90
2018-07-22T09:36:45.425Z,7.03
2018-07-22T09:39:13.542Z,5.95
2018-07-22T09:41:41.618Z,5.83
2018-07-22T09:44:09.616Z,5.95
2018-07-22T09:46:37.702Z,6.40
2018-07-22T09:49:05.896Z,6.83
2018-07-22T09:51:34.009Z,6.45
2018-07-22T09:54:02.028Z,6.28
2018-07-22T09:56:30.137Z,6.12
2018-07-22T09:58:58.051Z,5.83
2018-07-22T10:01:26.117Z,6.45
2018-07-22T10:03:54.250Z,7.87
2018-07-22T10:06:22.109Z,6.67
2018-07-22T10:08:49.914Z,5.50
2018-07-22T10:11:17.984Z,5.67
2018-07-22T10:13:45.813Z,5.55
2018-07-22T10:16:13.867Z,5.85
2018-07-22T10:18:42.378Z,6.22
2018-07-22T10:21:10.403Z,6.30
2018-07-22T10:23:38.411Z,7.67
2018-07-22T10:26:06.454Z,5.80
2018-07-22T10:28:34.453Z,10.45
2018-07-22T10:31:02.484Z,5.50
2018-07-22T10:33:30.516Z,5.45
2018-07-22T10:35:58.578Z,5.37
2018-07-22T10:38:26.539Z,4.72
2018-07-22T10:40:54.812Z,5.80
2018-07-22T10:43:22.815Z,5.37
2018-07-22T10:45:50.838Z,5.67
2018-07-22T10:48:19.055Z,6.20
2018-07-22T10:50:47.014Z,5.30
2018-07-22T10:53:15.045Z,5.62
2018-07-22T10:55:43.283Z,5.42
2018-07-22T10:58:11.193Z,4.95
2018-07-22T11:00:39.316Z,5.53
2018-07-22T11:03:07.732Z,5.62
2018-07-22T11:05:35.906Z,5.53
2018-07-22T11:08:03.940Z,6.00
2018-07-22T11:10:32.966Z,5.62
2018-07-22T11:13:00.766Z,5.65
2018-07-22T11:15:28.642Z,5.42
2018-07-22T11:17:56.833Z,5.95
2018-07-22T11:20:24.798Z,6.10
2018-07-22T11:22:52.585Z,6.37
2018-07-22T11:25:20.740Z,5.75
2018-07-22T11:27:48.549Z,5.03
2018-07-22T11:30:16.474Z,6.30
2018-07-22T11:32:44.956Z,6.03
2018-07-22T11:35:12.950Z,6.15
2018-07-22T11:37:40.855Z,5.58
2018-07-22T11:40:08.906Z,5.25
2018-07-22T11:42:36.927Z,5.58
2018-07-22T11:45:05.090Z,5.05
2018-07-22T11:47:32.952Z,5.75
2018-07-22T11:50:00.799Z,5.03
2018-07-22T11:52:28.870Z,5.72
2018-07-22T11:54:56.954Z,6.40
2018-07-22T11:57:24.848Z,8.10
2018-07-22T11:59:52.692Z,6.55
2018-07-22T12:02:21.038Z,5.70
2018-07-22T12:04:49.013Z,5.40
2018-07-22T12:07:17.036Z,6.53
2018-07-22T12:09:45.165Z,6.37
2018-07-22T12:12:13.226Z,5.87
2018-07-22T12:14:41.266Z,5.22
2018-07-22T12:17:09.286Z,6.03
2018-07-22T12:19:37.477Z,5.47
2018-07-22T12:22:05.382Z,5.25
2018-07-22T12:24:33.473Z,5.30
2018-07-22T12:27:01.515Z,5.28
2018-07-22T12:29:29.630Z,5.15
2018-07-22T12:31:57.502Z,5.28
2018-07-22T12:34:25.511Z,5.75
2018-07-22T12:36:53.490Z,5.37
2018-07-22T12:39:22.207Z,5.00
2018-07-22T12:41:50.137Z,5.03
2018-07-22T12:44:18.042Z,5.47
2018-07-22T12:46:46.271Z,5.12
2018-07-22T12:49:14.210Z,5.87
2018-07-22T12:51:42.147Z,5.80
2018-07-22T12:54:10.171Z,5.75
2018-07-22T12:56:38.140Z,5.28
2018-07-22T12:59:06.048Z,5.55
2018-07-22T13:01:34.336Z,4.80
2018-07-22T13:04:02.407Z,5.40
2018-07-22T13:06:30.474Z,5.42
2018-07-22T13:08:59.687Z,5.00
2018-07-22T13:11:27.701Z,4.75
2018-07-22T13:13:55.735Z,5.20
2018-07-22T13:16:23.836Z,5.30
2018-07-22T13:18:51.943Z,5.53
2018-07-22T13:21:19.991Z,5.35
2018-07-22T13:23:48.214Z,5.85
2018-07-22T13:26:16.240Z,5.35
2018-07-22T13:28:44.228Z,5.58
2018-07-22T13:31:12.151Z,5.40
2018-07-22T13:33:40.226Z,5.55
2018-07-22T13:36:08.235Z,5.75
2018-07-22T13:38:36.111Z,5.97
2018-07-22T13:41:04.086Z,5.45
2018-07-22T13:43:32.125Z,5.78
2018-07-22T13:46:00.185Z,5.50
2018-07-22T13:48:28.003Z,6.05
2018-07-22T13:50:56.063Z,6.08
2018-07-22T13:53:25.103Z,5.45
2018-07-22T13:55:53.017Z,5.53
2018-07-22T13:58:20.976Z,5.75
2018-07-22T14:00:49.447Z,5.50
2018-07-22T14:03:17.764Z,4.97
2018-07-22T14:05:45.762Z,5.50
2018-07-22T14:08:13.917Z,6.25
2018-07-22T14:10:41.902Z,6.15
2018-07-22T14:13:09.875Z,5.62
2018-07-22T14:15:38.030Z,6.17
2018-07-22T14:18:06.299Z,6.05
2018-07-22T14:20:34.352Z,5.85
2018-07-22T14:23:02.597Z,5.60
2018-07-22T14:25:30.593Z,5.83
2018-07-22T14:27:58.583Z,6.08
2018-07-22T14:30:27.318Z,5.40
2018-07-22T14:32:55.327Z,5.83
2018-07-22T14:35:23.361Z,6.40
2018-07-22T14:37:51.364Z,5.78
2018-07-22T14:40:19.272Z,5.67
2018-07-22T14:42:47.831Z,6.22
2018-07-22T14:45:15.982Z,5.85
2018-07-22T14:47:43.883Z,5.95
2018-07-22T14:50:11.947Z,5.70
2018-07-22T14:52:39.964Z,5.83
2018-07-22T14:55:08.050Z,5.22
2018-07-22T14:57:36.161Z,5.83
2018-07-22T15:00:04.883Z,6.03
2018-07-22T15:02:32.934Z,5.62
2018-07-22T15:05:00.761Z,6.50
2018-07-22T15:07:28.944Z,5.85
2018-07-22T15:09:56.969Z,6.20
2018-07-22T15:12:25.127Z,5.80
2018-07-22T15:14:53.093Z,5.95
2018-07-22T15:17:21.161Z,6.90
2018-07-22T15:19:50.087Z,6.70
2018-07-22T15:22:19.264Z,6.30
2018-07-22T15:24:47.283Z,6.55
2018-07-22T15:27:15.293Z,7.05
2018-07-22T15:29:43.439Z,5.80
2018-07-22T15:32:11.376Z,6.22
2018-07-22T15:34:39.483Z,6.33
2018-07-22T15:37:07.624Z,5.75
2018-07-22T15:39:35.789Z,6.35
2018-07-22T15:42:03.750Z,5.78
2018-07-22T15:44:31.788Z,6.03
2018-07-22T15:46:59.835Z,5.60
2018-07-22T15:49:27.957Z,6.55
2018-07-22T15:51:56.762Z,5.72
2018-07-22T15:54:24.994Z,6.17
2018-07-22T15:56:52.946Z,5.92
2018-07-22T15:59:21.075Z,6.35
2018-07-22T16:01:49.078Z,7.42
2018-07-22T16:04:17.126Z,6.20
2018-07-22T16:06:45.314Z,6.97
2018-07-22T16:09:13.276Z,7.90
2018-07-22T16:11:42.199Z,8.45
2018-07-22T16:14:10.293Z,7.58
2018-07-22T16:16:38.199Z,0.00
2018-07-22T16:19:06.376Z,0.23
2018-07-22T16:21:34.592Z,0.42
2018-07-22T16:24:02.561Z,0.10
2018-07-22T16:26:30.451Z,0.10
2018-07-22T16:28:58.959Z,0.10
2018-07-22T16:31:26.971Z,1.45
2018-07-22T16:33:54.858Z,0.10
2018-07-22T16:36:23.209Z,0.20
2018-07-22T16:38:51.242Z,0.78
2018-07-22T16:41:19.202Z,0.00
2018-07-22T16:43:47.441Z,0.10
2018-07-22T16:46:15.379Z,0.10
2018-07-22T16:48:43.217Z,0.10
2018-07-22T16:51:11.623Z,0.10
2018-07-22T16:53:39.669Z,0.13
2018-07-22T16:56:07.702Z,0.10
2018-07-22T16:58:35.808Z,2.25
2018-07-22T17:01:03.833Z,0.20
2018-07-22T17:03:31.857Z,0.80
2018-07-22T17:05:59.720Z,0.15
2018-07-22T17:08:27.512Z,0.10
2018-07-22T17:10:55.559Z,0.10
2018-07-22T17:13:23.570Z,0.10
2018-07-22T17:15:51.866Z,0.10
2018-07-22T17:18:19.802Z,0.10
2018-07-22T17:20:48.046Z,0.00
2018-07-22T17:23:16.079Z,0.15
2018-07-22T17:25:44.147Z,0.55
2018-07-22T17:28:12.497Z,0.10
2018-07-22T17:30:40.458Z,0.53
2018-07-22T17:33:08.494Z,0.10
2018-07-22T17:35:37.559Z,0.30
2018-07-22T17:38:05.489Z,0.10
2018-07-22T17:40:33.672Z,0.20
2018-07-22T17:43:02.502Z,3.00
2018-07-22T17:45:30.403Z,0.10
2018-07-22T17:47:58.399Z,0.10
2018-07-22T17:50:26.712Z,0.10
2018-07-22T17:52:54.732Z,0.10
2018-07-22T17:55:22.703Z,0.95
2018-07-22T17:57:50.698Z,0.10
2018-07-22T18:00:18.751Z,0.37
2018-07-22T18:03:19.702Z,0.10
2018-07-22T18:05:47.752Z,0.10
2018-07-22T18:08:15.675Z,0.23
2018-07-22T18:10:43.903Z,0.15
2018-07-22T18:13:11.748Z,0.20
2018-07-22T18:15:39.933Z,0.10
2018-07-22T18:18:08.029Z,0.10
2018-07-22T18:20:36.142Z,0.10
2018-07-22T18:23:04.225Z,0.10
2018-07-22T18:25:32.204Z,0.57
2018-07-22T18:28:00.410Z,0.10
2018-07-22T18:30:28.414Z,0.10
2018-07-22T18:32:56.490Z,0.10
2018-07-22T18:35:24.598Z,0.60
2018-07-22T18:37:52.880Z,0.10
2018-07-22T18:40:21.332Z,0.43
2018-07-22T18:42:49.355Z,0.10
2018-07-22T18:45:17.327Z,0.10
2018-07-22T18:47:45.380Z,0.10
2018-07-22T18:50:13.465Z,0.10
2018-07-22T18:52:41.439Z,0.10
2018-07-22T18:55:09.367Z,0.20
2018-07-22T18:57:37.507Z,0.10
2018-07-22T19:00:05.806Z,0.10
2018-07-22T19:02:34.314Z,0.50
2018-07-22T19:05:02.457Z,0.53
2018-07-22T19:07:30.330Z,0.33
2018-07-22T19:10:02.292Z,1.60
2018-07-22T19:12:30.256Z,0.10
2018-07-22T19:14:58.358Z,2.20
2018-07-22T19:17:30.009Z,0.10
2018-07-22T19:19:58.048Z,0.10
2018-07-22T19:22:25.976Z,0.20
2018-07-22T19:24:54.119Z,0.10
2018-07-22T19:27:22.150Z,0.20
2018-07-22T19:29:50.298Z,0.10
2018-07-22T19:32:18.231Z,0.50
2018-07-22T19:34:46.364Z,1.13
2018-07-22T19:37:14.514Z,1.90
2018-07-22T19:39:42.494Z,0.10
2018-07-22T19:42:10.453Z,0.10
2018-07-22T19:44:38.431Z,0.40
2018-07-22T19:47:06.703Z,0.20
2018-07-22T19:49:34.757Z,0.53
2018-07-22T19:52:02.722Z,0.10
2018-07-22T19:54:30.926Z,1.63
2018-07-22T19:56:59.030Z,0.20
2018-07-22T19:59:26.862Z,0.10
2018-07-22T20:01:55.337Z,0.10
2018-07-22T20:04:23.297Z,0.20
2018-07-22T20:06:51.487Z,0.30
2018-07-22T20:09:19.757Z,0.10
2018-07-22T20:11:48.022Z,0.10
2018-07-22T20:14:16.108Z,0.20
2018-07-22T20:16:44.555Z,0.40
2018-07-22T20:19:12.586Z,0.10
2018-07-22T20:21:40.504Z,0.10
2018-07-22T20:24:08.961Z,0.10
2018-07-22T20:26:37.113Z,0.10
2018-07-22T20:29:05.231Z,0.30
2018-07-22T20:31:33.231Z,0.20
2018-07-22T20:34:01.231Z,0.10
2018-07-22T20:36:29.134Z,0.30
2018-07-22T20:38:57.320Z,0.20
2018-07-22T20:41:25.506Z,0.70
2018-07-22T20:43:53.642Z,7.00
2018-07-22T20:46:22.140Z,7.23
2018-07-22T20:48:50.206Z,7.83
2018-07-22T20:51:18.167Z,7.00
2018-07-22T20:53:46.565Z,6.80
2018-07-22T20:56:14.417Z,6.80
2018-07-22T20:58:43.198Z,6.33
2018-07-22T21:01:11.230Z,6.00
2018-07-22T21:03:39.159Z,6.10
2018-07-22T21:06:07.062Z,6.93
2018-07-22T21:08:35.568Z,6.60
2018-07-22T21:11:03.728Z,6.70
2018-07-22T21:13:31.687Z,6.63
2018-07-22T21:15:59.969Z,7.40
2018-07-22T21:18:27.933Z,5.97
2018-07-22T21:20:56.105Z,6.80
2018-07-22T21:23:24.280Z,6.97
2018-07-22T21:25:52.475Z,6.80
2018-07-22T21:28:20.430Z,6.70
2018-07-22T21:30:48.803Z,7.83
2018-07-22T21:33:16.838Z,7.30
2018-07-22T21:35:44.918Z,7.47
2018-07-22T21:38:13.280Z,7.07
2018-07-22T21:40:41.181Z,6.87
2018-07-22T21:43:09.245Z,6.80
2018-07-22T21:45:37.404Z,6.63
2018-07-22T21:48:05.505Z,6.87
2018-07-22T21:50:33.523Z,7.43
2018-07-22T21:53:01.697Z,7.50
2018-07-22T21:55:29.608Z,7.93
2018-07-22T21:57:57.754Z,7.40
2018-07-22T22:00:32.214Z,7.53
2018-07-22T22:03:01.723Z,7.17
2018-07-22T22:05:29.687Z,7.17
2018-07-22T22:07:58.427Z,7.50
2018-07-22T22:10:26.768Z,7.53
2018-07-22T22:12:55.092Z,7.83
2018-07-22T22:15:28.128Z,7.83
2018-07-22T22:17:59.120Z,8.73
2018-07-22T22:20:27.641Z,7.80
2018-07-22T22:22:56.249Z,8.77
2018-07-22T22:25:24.287Z,9.80
2018-07-22T22:27:52.439Z,8.40
2018-07-22T22:30:20.382Z,9.23
2018-07-22T22:32:48.614Z,8.63
2018-07-22T22:35:16.544Z,8.27
2018-07-22T22:37:45.346Z,8.63
2018-07-22T22:40:14.235Z,8.20
2018-07-22T22:42:43.603Z,9.07
2018-07-22T22:45:12.560Z,9.40
2018-07-22T22:47:40.596Z,9.30
2018-07-22T22:50:08.672Z,8.47
2018-07-22T22:52:36.760Z,7.90
2018-07-22T22:55:04.867Z,8.07
2018-07-22T22:57:32.860Z,8.83
2018-07-22T23:00:01.372Z,8.17
2018-07-22T23:02:35.424Z,8.43
2018-07-22T23:05:04.338Z,8.87
2018-07-22T23:07:32.312Z,9.23
2018-07-22T23:10:00.359Z,8.33
2018-07-22T23:12:28.436Z,8.67
2018-07-22T23:14:56.498Z,7.73
2018-07-22T23:17:24.646Z,8.13
2018-07-22T23:19:52.666Z,8.47
2018-07-22T23:22:20.738Z,8.23
2018-07-22T23:24:48.731Z,8.20
2018-07-22T23:27:16.818Z,8.47
2018-07-22T23:29:44.971Z,7.70
2018-07-22T23:32:13.007Z,7.63
2018-07-22T23:34:41.088Z,9.00
2018-07-22T23:37:09.115Z,7.83
2018-07-22T23:39:36.426Z,6.93
2018-07-22T23:42:04.704Z,7.30
2018-07-22T23:44:32.745Z,7.93
2018-07-22T23:47:00.845Z,6.90
2018-07-22T23:49:28.837Z,6.77
2018-07-22T23:51:56.949Z,7.33
2018-07-22T23:54:25.016Z,7.30
2018-07-22T23:56:53.526Z,7.10
2018-07-22T23:59:21.532Z,7.20
